sensor_id;sensor_type;location;lat;lon;timestamp;temperature;humidity
10512;DHT22;5304;48.604;2.096;2023-01-29T00:00:21;1.60;99.90
10512;DHT22;5304;48.604;2.096;2023-01-29T00:03:06;1.60;99.90
10512;DHT22;5304;48.604;2.096;2023-01-29T00:05:50;1.70;99.90
10512;DHT22;5304;48.604;2.096;2023-01-29T00:08:36;1.80;99.90
10512;DHT22;5304;48.604;2.096;2023-01-29T00:11:20;1.80;99.90
10512;DHT22;5304;48.604;2.096;2023-01-29T00:14:05;1.70;99.90
10512;DHT22;5304;48.604;2.096;2023-01-29T00:16:49;1.70;99.90
10512;DHT22;5304;48.604;2.096;2023-01-29T00:19:34;1.60;99.90
10512;DHT22;5304;48.604;2.096;2023-01-29T00:22:19;1.60;99.90
10512;DHT22;5304;48.604;2.096;2023-01-29T00:25:03;1.50;99.90
10512;DHT22;5304;48.604;2.096;2023-01-29T00:27:48;1.30;99.90
10512;DHT22;5304;48.604;2.096;2023-01-29T00:30:32;1.20;99.90
10512;DHT22;5304;48.604;2.096;2023-01-29T00:33:16;1.20;99.90
10512;DHT22;5304;48.604;2.096;2023-01-29T00:36:09;1.00;99.90
10512;DHT22;5304;48.604;2.096;2023-01-29T00:38:58;0.90;99.90
10512;DHT22;5304;48.604;2.096;2023-01-29T00:41:42;0.80;99.90
10512;DHT22;5304;48.604;2.096;2023-01-29T00:44:46;0.80;99.90
10512;DHT22;5304;48.604;2.096;2023-01-29T00:47:42;0.70;99.90
10512;DHT22;5304;48.604;2.096;2023-01-29T00:50:26;0.60;99.90
10512;DHT22;5304;48.604;2.096;2023-01-29T00:53:11;0.50;99.90
10512;DHT22;5304;48.604;2.096;2023-01-29T00:55:55;0.40;99.90
10512;DHT22;5304;48.604;2.096;2023-01-29T00:58:40;0.30;99.90
10512;DHT22;5304;48.604;2.096;2023-01-29T01:01:24;0.30;99.90
10512;DHT22;5304;48.604;2.096;2023-01-29T01:04:29;0.20;99.90
10512;DHT22;5304;48.604;2.096;2023-01-29T01:07:13;0.10;99.90
10512;DHT22;5304;48.604;2.096;2023-01-29T01:09:58;0.00;99.90
10512;DHT22;5304;48.604;2.096;2023-01-29T01:13:03;0.00;99.90
10512;DHT22;5304;48.604;2.096;2023-01-29T01:15:48;-0.10;99.90
10512;DHT22;5304;48.604;2.096;2023-01-29T01:18:32;-0.20;99.90
10512;DHT22;5304;48.604;2.096;2023-01-29T01:21:17;-0.30;99.90
10512;DHT22;5304;48.604;2.096;2023-01-29T01:24:01;-0.40;99.90
10512;DHT22;5304;48.604;2.096;2023-01-29T01:26:48;-0.50;99.90
10512;DHT22;5304;48.604;2.096;2023-01-29T01:29:32;-0.60;99.90
10512;DHT22;5304;48.604;2.096;2023-01-29T01:32:17;-0.70;99.90
10512;DHT22;5304;48.604;2.096;2023-01-29T01:35:01;-0.60;99.90
10512;DHT22;5304;48.604;2.096;2023-01-29T01:37:46;-0.50;99.90
10512;DHT22;5304;48.604;2.096;2023-01-29T01:40:31;-0.40;99.90
10512;DHT22;5304;48.604;2.096;2023-01-29T01:43:15;-0.30;99.90
10512;DHT22;5304;48.604;2.096;2023-01-29T01:46:00;-0.30;99.90
10512;DHT22;5304;48.604;2.096;2023-01-29T01:48:52;-0.30;99.90
10512;DHT22;5304;48.604;2.096;2023-01-29T01:51:41;-0.20;99.90
10512;DHT22;5304;48.604;2.096;2023-01-29T01:54:27;-0.20;99.90
10512;DHT22;5304;48.604;2.096;2023-01-29T01:57:17;-0.10;99.90
10512;DHT22;5304;48.604;2.096;2023-01-29T02:00:10;-0.10;99.90
10512;DHT22;5304;48.604;2.096;2023-01-29T02:02:56;-0.20;99.90
10512;DHT22;5304;48.604;2.096;2023-01-29T02:05:59;-0.20;99.90
10512;DHT22;5304;48.604;2.096;2023-01-29T02:09:12;-0.20;99.90
10512;DHT22;5304;48.604;2.096;2023-01-29T02:12:15;-0.10;99.90
10512;DHT22;5304;48.604;2.096;2023-01-29T02:15:00;-0.10;99.90
10512;DHT22;5304;48.604;2.096;2023-01-29T02:17:45;0.00;99.90
10512;DHT22;5304;48.604;2.096;2023-01-29T02:20:31;0.10;99.90
10512;DHT22;5304;48.604;2.096;2023-01-29T02:27:02;-0.20;99.90
10512;DHT22;5304;48.604;2.096;2023-01-29T02:36:11;-0.50;99.90
10512;DHT22;5304;48.604;2.096;2023-01-29T02:39:01;-0.50;99.90
10512;DHT22;5304;48.604;2.096;2023-01-29T02:42:20;-0.50;99.90
10512;DHT22;5304;48.604;2.096;2023-01-29T02:45:47;-0.50;99.90
10512;DHT22;5304;48.604;2.096;2023-01-29T02:48:52;-0.60;99.90
10512;DHT22;5304;48.604;2.096;2023-01-29T02:51:45;-0.60;99.90
10512;DHT22;5304;48.604;2.096;2023-01-29T02:57:32;-0.70;99.90
10512;DHT22;5304;48.604;2.096;2023-01-29T03:00:22;-0.80;99.90
10512;DHT22;5304;48.604;2.096;2023-01-29T03:03:25;-0.90;99.90
10512;DHT22;5304;48.604;2.096;2023-01-29T03:06:23;-0.90;99.90
10512;DHT22;5304;48.604;2.096;2023-01-29T03:09:40;-1.00;99.90
10512;DHT22;5304;48.604;2.096;2023-01-29T03:12:27;-1.10;99.90
10512;DHT22;5304;48.604;2.096;2023-01-29T03:15:24;-1.00;99.90
10512;DHT22;5304;48.604;2.096;2023-01-29T03:18:15;-1.00;99.90
10512;DHT22;5304;48.604;2.096;2023-01-29T03:21:07;-1.10;99.90
10512;DHT22;5304;48.604;2.096;2023-01-29T03:24:14;-1.10;99.90
10512;DHT22;5304;48.604;2.096;2023-01-29T03:27:21;-1.20;99.90
10512;DHT22;5304;48.604;2.096;2023-01-29T03:30:27;-1.30;99.90
10512;DHT22;5304;48.604;2.096;2023-01-29T03:34:21;-1.20;99.90
10512;DHT22;5304;48.604;2.096;2023-01-29T03:36:59;-1.20;99.90
10512;DHT22;5304;48.604;2.096;2023-01-29T03:39:44;-1.30;99.90
10512;DHT22;5304;48.604;2.096;2023-01-29T03:42:54;-1.30;99.90
10512;DHT22;5304;48.604;2.096;2023-01-29T03:48:54;-1.40;99.90
10512;DHT22;5304;48.604;2.096;2023-01-29T04:00:39;-1.20;99.90
10512;DHT22;5304;48.604;2.096;2023-01-29T04:03:33;-1.10;99.90
10512;DHT22;5304;48.604;2.096;2023-01-29T04:06:23;-1.20;99.90
10512;DHT22;5304;48.604;2.096;2023-01-29T04:09:22;-1.20;99.90
10512;DHT22;5304;48.604;2.096;2023-01-29T04:12:11;-1.30;99.90
10512;DHT22;5304;48.604;2.096;2023-01-29T04:14:58;-1.20;99.90
10512;DHT22;5304;48.604;2.096;2023-01-29T04:17:55;-1.40;99.90
10512;DHT22;5304;48.604;2.096;2023-01-29T04:20:40;-1.40;99.90
10512;DHT22;5304;48.604;2.096;2023-01-29T04:23:25;-1.50;99.90
10512;DHT22;5304;48.604;2.096;2023-01-29T04:29:43;-1.40;99.90
10512;DHT22;5304;48.604;2.096;2023-01-29T04:33:55;-1.40;99.90
10512;DHT22;5304;48.604;2.096;2023-01-29T04:39:29;-1.60;99.90
10512;DHT22;5304;48.604;2.096;2023-01-29T04:42:32;-1.60;99.90
10512;DHT22;5304;48.604;2.096;2023-01-29T04:48:27;-1.60;99.90
10512;DHT22;5304;48.604;2.096;2023-01-29T04:51:18;-1.60;99.90
10512;DHT22;5304;48.604;2.096;2023-01-29T04:57:19;-1.70;99.90
10512;DHT22;5304;48.604;2.096;2023-01-29T05:00:12;-1.70;99.90
10512;DHT22;5304;48.604;2.096;2023-01-29T05:03:00;-1.70;99.90
10512;DHT22;5304;48.604;2.096;2023-01-29T05:05:46;-1.70;99.90
10512;DHT22;5304;48.604;2.096;2023-01-29T05:08:31;-1.70;99.90
10512;DHT22;5304;48.604;2.096;2023-01-29T05:11:17;-1.80;99.90
10512;DHT22;5304;48.604;2.096;2023-01-29T05:14:05;-1.90;99.90
10512;DHT22;5304;48.604;2.096;2023-01-29T05:16:51;-1.90;99.90
10512;DHT22;5304;48.604;2.096;2023-01-29T05:19:36;-1.80;99.90
10512;DHT22;5304;48.604;2.096;2023-01-29T05:22:21;-1.80;99.90
10512;DHT22;5304;48.604;2.096;2023-01-29T05:28:04;-1.80;99.90
10512;DHT22;5304;48.604;2.096;2023-01-29T05:30:53;-1.70;99.90
10512;DHT22;5304;48.604;2.096;2023-01-29T05:33:37;-1.90;99.90
10512;DHT22;5304;48.604;2.096;2023-01-29T05:36:22;-2.00;99.90
10512;DHT22;5304;48.604;2.096;2023-01-29T05:39:08;-2.10;99.90
10512;DHT22;5304;48.604;2.096;2023-01-29T05:41:54;-2.00;99.90
10512;DHT22;5304;48.604;2.096;2023-01-29T05:44:38;-1.80;99.90
10512;DHT22;5304;48.604;2.096;2023-01-29T05:47:23;-1.80;99.90
10512;DHT22;5304;48.604;2.096;2023-01-29T05:50:08;-1.90;99.90
10512;DHT22;5304;48.604;2.096;2023-01-29T05:53:00;-1.90;99.90
10512;DHT22;5304;48.604;2.096;2023-01-29T05:55:46;-1.90;99.90
10512;DHT22;5304;48.604;2.096;2023-01-29T05:58:31;-1.90;99.90
10512;DHT22;5304;48.604;2.096;2023-01-29T06:01:19;-1.90;99.90
10512;DHT22;5304;48.604;2.096;2023-01-29T06:04:04;-2.00;99.90
10512;DHT22;5304;48.604;2.096;2023-01-29T06:06:48;-2.10;99.90
10512;DHT22;5304;48.604;2.096;2023-01-29T06:09:33;-2.20;99.90
10512;DHT22;5304;48.604;2.096;2023-01-29T06:12:17;-2.20;99.90
10512;DHT22;5304;48.604;2.096;2023-01-29T06:15:02;-2.30;99.90
10512;DHT22;5304;48.604;2.096;2023-01-29T06:17:47;-2.30;99.90
10512;DHT22;5304;48.604;2.096;2023-01-29T06:20:31;-2.20;99.90
10512;DHT22;5304;48.604;2.096;2023-01-29T06:23:16;-2.20;99.90
10512;DHT22;5304;48.604;2.096;2023-01-29T06:26:09;-2.10;99.90
10512;DHT22;5304;48.604;2.096;2023-01-29T06:28:54;-1.80;99.90
10512;DHT22;5304;48.604;2.096;2023-01-29T06:31:39;-1.80;99.90
10512;DHT22;5304;48.604;2.096;2023-01-29T06:34:23;-1.90;99.90
10512;DHT22;5304;48.604;2.096;2023-01-29T06:37:07;-2.10;99.90
10512;DHT22;5304;48.604;2.096;2023-01-29T06:39:52;-2.10;99.90
10512;DHT22;5304;48.604;2.096;2023-01-29T06:42:36;-2.00;99.90
10512;DHT22;5304;48.604;2.096;2023-01-29T06:45:20;-1.80;99.90
10512;DHT22;5304;48.604;2.096;2023-01-29T06:48:05;-1.90;99.90
10512;DHT22;5304;48.604;2.096;2023-01-29T06:50:50;-2.10;99.90
10512;DHT22;5304;48.604;2.096;2023-01-29T06:53:35;-2.20;99.90
10512;DHT22;5304;48.604;2.096;2023-01-29T06:56:21;-2.30;99.90
10512;DHT22;5304;48.604;2.096;2023-01-29T06:59:05;-2.20;99.90
10512;DHT22;5304;48.604;2.096;2023-01-29T07:01:50;-2.30;99.90
10512;DHT22;5304;48.604;2.096;2023-01-29T07:04:34;-2.40;99.90
10512;DHT22;5304;48.604;2.096;2023-01-29T07:07:19;-2.30;99.90
10512;DHT22;5304;48.604;2.096;2023-01-29T07:10:04;-2.40;99.90
10512;DHT22;5304;48.604;2.096;2023-01-29T07:12:49;-2.40;99.90
10512;DHT22;5304;48.604;2.096;2023-01-29T07:15:33;-2.40;99.90
10512;DHT22;5304;48.604;2.096;2023-01-29T07:18:18;-2.20;99.90
10512;DHT22;5304;48.604;2.096;2023-01-29T07:21:04;-2.20;99.90
10512;DHT22;5304;48.604;2.096;2023-01-29T07:23:49;-2.30;99.90
10512;DHT22;5304;48.604;2.096;2023-01-29T07:26:34;-2.30;99.90
10512;DHT22;5304;48.604;2.096;2023-01-29T07:29:18;-2.30;99.90
10512;DHT22;5304;48.604;2.096;2023-01-29T07:32:02;-2.30;99.90
10512;DHT22;5304;48.604;2.096;2023-01-29T07:34:47;-2.30;99.90
10512;DHT22;5304;48.604;2.096;2023-01-29T07:37:31;-2.30;99.90
10512;DHT22;5304;48.604;2.096;2023-01-29T07:40:17;-2.20;99.90
10512;DHT22;5304;48.604;2.096;2023-01-29T07:43:03;-2.20;99.90
10512;DHT22;5304;48.604;2.096;2023-01-29T07:45:48;-2.00;99.90
10512;DHT22;5304;48.604;2.096;2023-01-29T07:48:33;-1.80;99.90
10512;DHT22;5304;48.604;2.096;2023-01-29T07:51:18;-1.80;99.90
10512;DHT22;5304;48.604;2.096;2023-01-29T07:54:04;-2.00;99.90
10512;DHT22;5304;48.604;2.096;2023-01-29T07:56:48;-2.10;99.90
10512;DHT22;5304;48.604;2.096;2023-01-29T07:59:33;-2.10;99.90
10512;DHT22;5304;48.604;2.096;2023-01-29T08:02:17;-2.20;99.90
10512;DHT22;5304;48.604;2.096;2023-01-29T08:05:01;-2.30;99.90
10512;DHT22;5304;48.604;2.096;2023-01-29T08:07:51;-2.30;99.90
10512;DHT22;5304;48.604;2.096;2023-01-29T08:10:38;-2.30;99.90
10512;DHT22;5304;48.604;2.096;2023-01-29T08:13:22;-2.20;99.90
10512;DHT22;5304;48.604;2.096;2023-01-29T08:16:07;-2.20;99.90
10512;DHT22;5304;48.604;2.096;2023-01-29T08:18:52;-2.10;99.90
10512;DHT22;5304;48.604;2.096;2023-01-29T08:21:37;-1.90;99.90
10512;DHT22;5304;48.604;2.096;2023-01-29T08:24:21;-1.80;99.90
10512;DHT22;5304;48.604;2.096;2023-01-29T08:27:05;-1.70;99.90
10512;DHT22;5304;48.604;2.096;2023-01-29T08:29:49;-1.70;99.90
10512;DHT22;5304;48.604;2.096;2023-01-29T08:32:34;-1.60;99.90
10512;DHT22;5304;48.604;2.096;2023-01-29T08:35:19;-1.50;99.90
10512;DHT22;5304;48.604;2.096;2023-01-29T08:38:04;-1.40;99.90
10512;DHT22;5304;48.604;2.096;2023-01-29T08:40:49;-1.20;99.90
10512;DHT22;5304;48.604;2.096;2023-01-29T08:43:34;-1.10;99.90
10512;DHT22;5304;48.604;2.096;2023-01-29T08:46:20;-0.80;99.90
10512;DHT22;5304;48.604;2.096;2023-01-29T08:49:04;-0.60;99.90
10512;DHT22;5304;48.604;2.096;2023-01-29T08:51:48;-0.20;99.90
10512;DHT22;5304;48.604;2.096;2023-01-29T08:54:34;0.20;99.90
10512;DHT22;5304;48.604;2.096;2023-01-29T08:57:20;0.40;99.90
10512;DHT22;5304;48.604;2.096;2023-01-29T09:00:06;0.70;99.90
10512;DHT22;5304;48.604;2.096;2023-01-29T09:02:51;1.20;99.90
10512;DHT22;5304;48.604;2.096;2023-01-29T09:05:37;1.70;99.90
10512;DHT22;5304;48.604;2.096;2023-01-29T09:08:22;2.30;99.90
10512;DHT22;5304;48.604;2.096;2023-01-29T09:11:07;3.00;99.90
10512;DHT22;5304;48.604;2.096;2023-01-29T09:13:52;3.60;99.90
10512;DHT22;5304;48.604;2.096;2023-01-29T09:16:36;3.90;99.90
10512;DHT22;5304;48.604;2.096;2023-01-29T09:19:21;4.30;99.90
10512;DHT22;5304;48.604;2.096;2023-01-29T09:22:08;4.50;99.90
10512;DHT22;5304;48.604;2.096;2023-01-29T09:24:52;5.00;99.90
10512;DHT22;5304;48.604;2.096;2023-01-29T09:27:37;5.40;99.90
10512;DHT22;5304;48.604;2.096;2023-01-29T09:30:21;5.60;99.90
10512;DHT22;5304;48.604;2.096;2023-01-29T09:33:06;6.40;99.90
10512;DHT22;5304;48.604;2.096;2023-01-29T09:35:51;6.40;99.90
10512;DHT22;5304;48.604;2.096;2023-01-29T09:38:35;5.60;99.90
10512;DHT22;5304;48.604;2.096;2023-01-29T09:44:37;6.00;99.90
10512;DHT22;5304;48.604;2.096;2023-01-29T09:47:26;5.90;99.90
10512;DHT22;5304;48.604;2.096;2023-01-29T09:50:38;5.80;99.90
10512;DHT22;5304;48.604;2.096;2023-01-29T09:56:20;6.20;99.90
10512;DHT22;5304;48.604;2.096;2023-01-29T09:59:05;6.60;99.90
10512;DHT22;5304;48.604;2.096;2023-01-29T10:01:54;7.00;99.90
10512;DHT22;5304;48.604;2.096;2023-01-29T10:08:04;7.10;99.90
10512;DHT22;5304;48.604;2.096;2023-01-29T10:11:16;7.20;99.90
10512;DHT22;5304;48.604;2.096;2023-01-29T10:23:20;6.20;99.90
10512;DHT22;5304;48.604;2.096;2023-01-29T10:26:10;5.90;99.90
10512;DHT22;5304;48.604;2.096;2023-01-29T10:28:57;5.70;99.90
10512;DHT22;5304;48.604;2.096;2023-01-29T10:31:45;5.60;99.90
10512;DHT22;5304;48.604;2.096;2023-01-29T10:34:35;5.50;99.90
10512;DHT22;5304;48.604;2.096;2023-01-29T10:37:29;5.30;99.90
10512;DHT22;5304;48.604;2.096;2023-01-29T10:40:38;5.30;99.90
10512;DHT22;5304;48.604;2.096;2023-01-29T10:58:54;5.50;99.90
10512;DHT22;5304;48.604;2.096;2023-01-29T11:01:40;5.60;99.90
10512;DHT22;5304;48.604;2.096;2023-01-29T11:04:27;5.70;99.90
10512;DHT22;5304;48.604;2.096;2023-01-29T11:07:16;5.80;99.90
10512;DHT22;5304;48.604;2.096;2023-01-29T11:10:11;5.80;99.90
10512;DHT22;5304;48.604;2.096;2023-01-29T11:12:58;5.70;99.90
10512;DHT22;5304;48.604;2.096;2023-01-29T11:15:43;5.70;99.90
10512;DHT22;5304;48.604;2.096;2023-01-29T11:18:51;5.80;99.90
10512;DHT22;5304;48.604;2.096;2023-01-29T11:24:35;5.80;99.90
10512;DHT22;5304;48.604;2.096;2023-01-29T11:27:24;5.80;99.90
10512;DHT22;5304;48.604;2.096;2023-01-29T11:35:48;6.10;99.90
10512;DHT22;5304;48.604;2.096;2023-01-29T11:38:35;6.50;99.90
10512;DHT22;5304;48.604;2.096;2023-01-29T11:41:19;6.90;99.90
10512;DHT22;5304;48.604;2.096;2023-01-29T11:47:18;7.20;99.90
10512;DHT22;5304;48.604;2.096;2023-01-29T11:50:03;7.00;99.90
10512;DHT22;5304;48.604;2.096;2023-01-29T11:52:48;6.80;99.90
10512;DHT22;5304;48.604;2.096;2023-01-29T11:55:34;6.60;99.90
10512;DHT22;5304;48.604;2.096;2023-01-29T11:58:27;6.50;99.90
10512;DHT22;5304;48.604;2.096;2023-01-29T12:01:15;6.30;99.90
10512;DHT22;5304;48.604;2.096;2023-01-29T12:04:16;6.30;99.90
10512;DHT22;5304;48.604;2.096;2023-01-29T12:07:02;6.30;99.90
10512;DHT22;5304;48.604;2.096;2023-01-29T12:09:55;6.20;99.90
10512;DHT22;5304;48.604;2.096;2023-01-29T12:12:43;6.20;99.90
10512;DHT22;5304;48.604;2.096;2023-01-29T12:15:28;6.20;99.90
10512;DHT22;5304;48.604;2.096;2023-01-29T12:25:19;6.00;99.90
10512;DHT22;5304;48.604;2.096;2023-01-29T12:31:25;5.90;99.90
10512;DHT22;5304;48.604;2.096;2023-01-29T12:34:44;5.80;99.90
10512;DHT22;5304;48.604;2.096;2023-01-29T12:37:36;5.80;99.90
10512;DHT22;5304;48.604;2.096;2023-01-29T12:40:27;5.70;99.90
10512;DHT22;5304;48.604;2.096;2023-01-29T12:43:15;5.70;99.90
10512;DHT22;5304;48.604;2.096;2023-01-29T12:46:00;5.70;99.90
10512;DHT22;5304;48.604;2.096;2023-01-29T12:48:45;5.50;99.90
10512;DHT22;5304;48.604;2.096;2023-01-29T12:51:36;5.40;99.90
10512;DHT22;5304;48.604;2.096;2023-01-29T12:54:53;5.40;99.90
10512;DHT22;5304;48.604;2.096;2023-01-29T12:57:44;5.50;99.90
10512;DHT22;5304;48.604;2.096;2023-01-29T13:00:35;5.40;99.90
10512;DHT22;5304;48.604;2.096;2023-01-29T13:04:01;5.30;99.90
10512;DHT22;5304;48.604;2.096;2023-01-29T13:06:52;5.50;99.90
10512;DHT22;5304;48.604;2.096;2023-01-29T13:09:41;5.60;99.90
10512;DHT22;5304;48.604;2.096;2023-01-29T13:12:29;5.50;99.90
10512;DHT22;5304;48.604;2.096;2023-01-29T13:15:30;5.80;99.90
10512;DHT22;5304;48.604;2.096;2023-01-29T13:21:22;6.10;99.90
10512;DHT22;5304;48.604;2.096;2023-01-29T13:24:14;6.30;99.90
10512;DHT22;5304;48.604;2.096;2023-01-29T13:27:00;6.40;99.90
10512;DHT22;5304;48.604;2.096;2023-01-29T13:29:44;6.40;99.90
10512;DHT22;5304;48.604;2.096;2023-01-29T13:32:30;6.40;99.90
10512;DHT22;5304;48.604;2.096;2023-01-29T13:35:17;6.20;99.90
10512;DHT22;5304;48.604;2.096;2023-01-29T13:38:02;6.10;99.90
10512;DHT22;5304;48.604;2.096;2023-01-29T13:40:49;6.20;99.90
10512;DHT22;5304;48.604;2.096;2023-01-29T13:43:37;6.30;99.90
10512;DHT22;5304;48.604;2.096;2023-01-29T13:46:22;6.30;99.90
10512;DHT22;5304;48.604;2.096;2023-01-29T13:49:29;6.20;99.90
10512;DHT22;5304;48.604;2.096;2023-01-29T13:55:20;6.20;99.90
10512;DHT22;5304;48.604;2.096;2023-01-29T14:01:10;6.50;99.90
10512;DHT22;5304;48.604;2.096;2023-01-29T14:03:55;6.60;99.90
10512;DHT22;5304;48.604;2.096;2023-01-29T14:06:43;6.60;99.90
10512;DHT22;5304;48.604;2.096;2023-01-29T14:09:59;6.60;99.90
10512;DHT22;5304;48.604;2.096;2023-01-29T14:12:45;6.50;99.90
10512;DHT22;5304;48.604;2.096;2023-01-29T14:15:34;6.40;99.90
10512;DHT22;5304;48.604;2.096;2023-01-29T14:18:20;6.20;99.90
10512;DHT22;5304;48.604;2.096;2023-01-29T14:24:21;6.00;99.90
10512;DHT22;5304;48.604;2.096;2023-01-29T14:27:19;6.10;99.90
10512;DHT22;5304;48.604;2.096;2023-01-29T14:30:08;6.00;99.90
10512;DHT22;5304;48.604;2.096;2023-01-29T14:33:01;5.90;99.90
10512;DHT22;5304;48.604;2.096;2023-01-29T14:35:49;6.00;99.90
10512;DHT22;5304;48.604;2.096;2023-01-29T14:38:35;6.10;99.90
10512;DHT22;5304;48.604;2.096;2023-01-29T14:41:31;6.20;99.90
10512;DHT22;5304;48.604;2.096;2023-01-29T14:53:47;5.90;99.90
10512;DHT22;5304;48.604;2.096;2023-01-29T14:56:36;5.90;99.90
10512;DHT22;5304;48.604;2.096;2023-01-29T14:59:36;5.80;99.90
10512;DHT22;5304;48.604;2.096;2023-01-29T15:02:29;5.70;99.90
10512;DHT22;5304;48.604;2.096;2023-01-29T15:05:24;5.50;99.90
10512;DHT22;5304;48.604;2.096;2023-01-29T15:11:02;5.40;99.90
10512;DHT22;5304;48.604;2.096;2023-01-29T15:14:30;5.60;99.90
10512;DHT22;5304;48.604;2.096;2023-01-29T15:17:31;5.50;99.90
10512;DHT22;5304;48.604;2.096;2023-01-29T15:20:32;5.60;99.90
10512;DHT22;5304;48.604;2.096;2023-01-29T15:23:30;5.70;99.90
10512;DHT22;5304;48.604;2.096;2023-01-29T15:26:21;5.50;99.90
10512;DHT22;5304;48.604;2.096;2023-01-29T15:29:18;5.40;99.90
10512;DHT22;5304;48.604;2.096;2023-01-29T15:32:05;5.40;99.90
10512;DHT22;5304;48.604;2.096;2023-01-29T15:34:50;5.50;99.90
10512;DHT22;5304;48.604;2.096;2023-01-29T15:37:36;5.60;99.90
10512;DHT22;5304;48.604;2.096;2023-01-29T15:40:21;5.50;99.90
10512;DHT22;5304;48.604;2.096;2023-01-29T15:46:13;5.40;99.90
10512;DHT22;5304;48.604;2.096;2023-01-29T15:49:05;5.30;99.90
10512;DHT22;5304;48.604;2.096;2023-01-29T15:51:55;5.30;99.90
10512;DHT22;5304;48.604;2.096;2023-01-29T15:54:41;5.10;99.90
10512;DHT22;5304;48.604;2.096;2023-01-29T15:57:32;5.20;99.90
10512;DHT22;5304;48.604;2.096;2023-01-29T16:00:21;5.10;99.90
10512;DHT22;5304;48.604;2.096;2023-01-29T16:03:14;5.10;99.90
10512;DHT22;5304;48.604;2.096;2023-01-29T16:05:59;5.10;99.90
10512;DHT22;5304;48.604;2.096;2023-01-29T16:08:51;5.00;99.90
10512;DHT22;5304;48.604;2.096;2023-01-29T16:11:36;5.00;99.90
10512;DHT22;5304;48.604;2.096;2023-01-29T16:14:22;5.00;99.90
10512;DHT22;5304;48.604;2.096;2023-01-29T16:17:32;5.00;99.90
10512;DHT22;5304;48.604;2.096;2023-01-29T16:20:38;4.90;99.90
10512;DHT22;5304;48.604;2.096;2023-01-29T16:23:29;4.90;99.90
10512;DHT22;5304;48.604;2.096;2023-01-29T16:26:18;4.90;99.90
10512;DHT22;5304;48.604;2.096;2023-01-29T16:29:08;4.80;99.90
10512;DHT22;5304;48.604;2.096;2023-01-29T16:31:54;4.80;99.90
10512;DHT22;5304;48.604;2.096;2023-01-29T16:34:44;4.70;99.90
10512;DHT22;5304;48.604;2.096;2023-01-29T16:37:33;4.70;99.90
10512;DHT22;5304;48.604;2.096;2023-01-29T16:40:31;4.70;99.90
10512;DHT22;5304;48.604;2.096;2023-01-29T16:46:07;4.60;99.90
10512;DHT22;5304;48.604;2.096;2023-01-29T16:48:59;4.60;99.90
10512;DHT22;5304;48.604;2.096;2023-01-29T16:51:43;4.60;99.90
10512;DHT22;5304;48.604;2.096;2023-01-29T16:54:28;4.60;99.90
10512;DHT22;5304;48.604;2.096;2023-01-29T16:57:22;4.60;99.90
10512;DHT22;5304;48.604;2.096;2023-01-29T17:00:19;4.50;99.90
10512;DHT22;5304;48.604;2.096;2023-01-29T17:03:06;4.60;99.90
10512;DHT22;5304;48.604;2.096;2023-01-29T17:05:50;4.60;99.90
10512;DHT22;5304;48.604;2.096;2023-01-29T17:08:35;4.60;99.90
10512;DHT22;5304;48.604;2.096;2023-01-29T17:11:30;4.50;99.90
10512;DHT22;5304;48.604;2.096;2023-01-29T17:14:17;4.50;99.90
10512;DHT22;5304;48.604;2.096;2023-01-29T17:17:04;4.40;99.90
10512;DHT22;5304;48.604;2.096;2023-01-29T17:19:48;4.40;99.90
10512;DHT22;5304;48.604;2.096;2023-01-29T17:22:33;4.40;99.90
10512;DHT22;5304;48.604;2.096;2023-01-29T17:25:17;4.30;99.90
10512;DHT22;5304;48.604;2.096;2023-01-29T17:28:02;4.30;99.90
10512;DHT22;5304;48.604;2.096;2023-01-29T17:30:46;4.30;99.90
10512;DHT22;5304;48.604;2.096;2023-01-29T17:33:31;4.40;99.90
10512;DHT22;5304;48.604;2.096;2023-01-29T17:36:16;4.40;99.90
10512;DHT22;5304;48.604;2.096;2023-01-29T17:39:04;4.40;99.90
10512;DHT22;5304;48.604;2.096;2023-01-29T17:41:53;4.40;99.90
10512;DHT22;5304;48.604;2.096;2023-01-29T17:44:40;4.40;99.90
10512;DHT22;5304;48.604;2.096;2023-01-29T17:47:25;4.30;99.90
10512;DHT22;5304;48.604;2.096;2023-01-29T17:50:36;4.30;99.90
10512;DHT22;5304;48.604;2.096;2023-01-29T17:53:21;4.30;99.90
10512;DHT22;5304;48.604;2.096;2023-01-29T17:56:16;4.30;99.90
10512;DHT22;5304;48.604;2.096;2023-01-29T17:59:01;4.40;99.90
10512;DHT22;5304;48.604;2.096;2023-01-29T18:01:49;4.40;99.90
10512;DHT22;5304;48.604;2.096;2023-01-29T18:04:34;4.30;99.90
10512;DHT22;5304;48.604;2.096;2023-01-29T18:07:18;4.30;99.90
10512;DHT22;5304;48.604;2.096;2023-01-29T18:10:05;4.30;99.90
10512;DHT22;5304;48.604;2.096;2023-01-29T18:12:50;4.30;99.90
10512;DHT22;5304;48.604;2.096;2023-01-29T18:15:34;4.30;99.90
10512;DHT22;5304;48.604;2.096;2023-01-29T18:18:20;4.30;99.90
10512;DHT22;5304;48.604;2.096;2023-01-29T18:21:05;4.30;99.90
10512;DHT22;5304;48.604;2.096;2023-01-29T18:23:51;4.30;99.90
10512;DHT22;5304;48.604;2.096;2023-01-29T18:26:35;4.30;99.90
10512;DHT22;5304;48.604;2.096;2023-01-29T18:29:19;4.30;99.90
10512;DHT22;5304;48.604;2.096;2023-01-29T18:32:04;4.30;99.90
10512;DHT22;5304;48.604;2.096;2023-01-29T18:34:48;4.40;99.90
10512;DHT22;5304;48.604;2.096;2023-01-29T18:37:33;4.30;99.90
10512;DHT22;5304;48.604;2.096;2023-01-29T18:40:18;4.30;99.90
10512;DHT22;5304;48.604;2.096;2023-01-29T18:43:02;4.30;99.90
10512;DHT22;5304;48.604;2.096;2023-01-29T18:45:47;4.30;99.90
10512;DHT22;5304;48.604;2.096;2023-01-29T18:48:32;4.40;99.90
10512;DHT22;5304;48.604;2.096;2023-01-29T18:51:17;4.40;99.90
10512;DHT22;5304;48.604;2.096;2023-01-29T18:54:02;4.30;99.90
10512;DHT22;5304;48.604;2.096;2023-01-29T18:56:47;4.30;99.90
10512;DHT22;5304;48.604;2.096;2023-01-29T18:59:31;4.40;99.90
10512;DHT22;5304;48.604;2.096;2023-01-29T19:02:16;4.40;99.90
10512;DHT22;5304;48.604;2.096;2023-01-29T19:05:02;4.40;99.90
10512;DHT22;5304;48.604;2.096;2023-01-29T19:07:47;4.30;99.90
10512;DHT22;5304;48.604;2.096;2023-01-29T19:10:32;4.20;99.90
10512;DHT22;5304;48.604;2.096;2023-01-29T19:13:17;4.30;99.90
10512;DHT22;5304;48.604;2.096;2023-01-29T19:16:01;4.20;99.90
10512;DHT22;5304;48.604;2.096;2023-01-29T19:18:49;4.30;99.90
10512;DHT22;5304;48.604;2.096;2023-01-29T19:21:33;4.30;99.90
10512;DHT22;5304;48.604;2.096;2023-01-29T19:24:20;4.30;99.90
10512;DHT22;5304;48.604;2.096;2023-01-29T19:27:05;4.40;99.90
10512;DHT22;5304;48.604;2.096;2023-01-29T19:29:49;4.40;99.90
10512;DHT22;5304;48.604;2.096;2023-01-29T19:32:34;4.30;99.90
10512;DHT22;5304;48.604;2.096;2023-01-29T19:35:19;4.30;99.90
10512;DHT22;5304;48.604;2.096;2023-01-29T19:38:03;4.30;99.90
10512;DHT22;5304;48.604;2.096;2023-01-29T19:40:49;4.30;99.90
10512;DHT22;5304;48.604;2.096;2023-01-29T19:43:33;4.30;99.90
10512;DHT22;5304;48.604;2.096;2023-01-29T19:46:18;4.30;99.90
10512;DHT22;5304;48.604;2.096;2023-01-29T19:49:03;4.30;99.90
10512;DHT22;5304;48.604;2.096;2023-01-29T19:51:49;4.20;99.90
10512;DHT22;5304;48.604;2.096;2023-01-29T19:54:33;4.30;99.90
10512;DHT22;5304;48.604;2.096;2023-01-29T19:57:19;4.30;99.90
10512;DHT22;5304;48.604;2.096;2023-01-29T20:00:04;4.20;99.90
10512;DHT22;5304;48.604;2.096;2023-01-29T20:02:48;4.20;99.90
10512;DHT22;5304;48.604;2.096;2023-01-29T20:05:34;4.20;99.90
10512;DHT22;5304;48.604;2.096;2023-01-29T20:08:20;4.20;99.90
10512;DHT22;5304;48.604;2.096;2023-01-29T20:11:05;4.20;99.90
10512;DHT22;5304;48.604;2.096;2023-01-29T20:13:51;4.20;99.90
10512;DHT22;5304;48.604;2.096;2023-01-29T20:16:36;4.20;99.90
10512;DHT22;5304;48.604;2.096;2023-01-29T20:19:20;4.20;99.90
10512;DHT22;5304;48.604;2.096;2023-01-29T20:22:05;4.20;99.90